sensor_id;sensor_type;location;lat;lon;timestamp;temperature;humidity
1135;DHT22;556;53.550;10.048;2022-11-13T00:02:38;9.90;52.90
1135;DHT22;556;53.550;10.048;2022-11-13T00:05:24;9.90;52.90
1135;DHT22;556;53.550;10.048;2022-11-13T00:08:10;9.90;52.90
1135;DHT22;556;53.550;10.048;2022-11-13T00:11:00;9.90;52.90
1135;DHT22;556;53.550;10.048;2022-11-13T00:13:48;9.80;52.90
1135;DHT22;556;53.550;10.048;2022-11-13T00:16:34;9.90;52.90
1135;DHT22;556;53.550;10.048;2022-11-13T00:19:20;9.90;53.40
1135;DHT22;556;53.550;10.048;2022-11-13T00:22:05;9.90;52.90
1135;DHT22;556;53.550;10.048;2022-11-13T00:24:50;9.80;52.80
1135;DHT22;556;53.550;10.048;2022-11-13T00:27:36;9.90;52.90
1135;DHT22;556;53.550;10.048;2022-11-13T00:30:23;9.90;52.90
1135;DHT22;556;53.550;10.048;2022-11-13T00:33:08;9.90;52.90
1135;DHT22;556;53.550;10.048;2022-11-13T00:36:00;9.90;52.90
1135;DHT22;556;53.550;10.048;2022-11-13T00:38:47;9.90;52.90
1135;DHT22;556;53.550;10.048;2022-11-13T00:41:33;9.90;52.90
1135;DHT22;556;53.550;10.048;2022-11-13T00:44:18;9.90;52.90
1135;DHT22;556;53.550;10.048;2022-11-13T00:47:05;9.90;52.90
1135;DHT22;556;53.550;10.048;2022-11-13T00:49:53;9.90;52.90
1135;DHT22;556;53.550;10.048;2022-11-13T00:52:38;9.90;52.90
1135;DHT22;556;53.550;10.048;2022-11-13T00:55:24;9.90;53.30
1135;DHT22;556;53.550;10.048;2022-11-13T00:58:10;9.90;52.90
1135;DHT22;556;53.550;10.048;2022-11-13T01:01:03;9.80;52.80
1135;DHT22;556;53.550;10.048;2022-11-13T01:03:50;9.80;52.90
1135;DHT22;556;53.550;10.048;2022-11-13T01:06:35;9.80;52.90
1135;DHT22;556;53.550;10.048;2022-11-13T01:09:21;9.80;52.90
1135;DHT22;556;53.550;10.048;2022-11-13T01:12:06;9.80;53.00
1135;DHT22;556;53.550;10.048;2022-11-13T01:14:52;9.80;53.00
1135;DHT22;556;53.550;10.048;2022-11-13T01:17:38;9.70;52.90
1135;DHT22;556;53.550;10.048;2022-11-13T01:20:25;9.80;53.00
1135;DHT22;556;53.550;10.048;2022-11-13T01:23:10;9.70;53.00
1135;DHT22;556;53.550;10.048;2022-11-13T01:26:04;9.70;53.40
1135;DHT22;556;53.550;10.048;2022-11-13T01:28:50;9.70;53.00
1135;DHT22;556;53.550;10.048;2022-11-13T01:31:35;9.70;53.00
1135;DHT22;556;53.550;10.048;2022-11-13T01:34:21;9.70;53.00
1135;DHT22;556;53.550;10.048;2022-11-13T01:37:08;9.70;53.00
1135;DHT22;556;53.550;10.048;2022-11-13T01:39:53;9.60;53.00
1135;DHT22;556;53.550;10.048;2022-11-13T01:42:39;9.60;53.00
1135;DHT22;556;53.550;10.048;2022-11-13T01:48:55;9.60;53.00
1135;DHT22;556;53.550;10.048;2022-11-13T01:51:46;9.70;53.00
1135;DHT22;556;53.550;10.048;2022-11-13T01:54:36;9.70;53.00
1135;DHT22;556;53.550;10.048;2022-11-13T01:57:23;9.70;52.90
1135;DHT22;556;53.550;10.048;2022-11-13T02:00:10;9.70;52.90
1135;DHT22;556;53.550;10.048;2022-11-13T02:02:56;9.80;53.00
1135;DHT22;556;53.550;10.048;2022-11-13T02:05:42;9.80;53.00
1135;DHT22;556;53.550;10.048;2022-11-13T02:08:27;9.80;53.00
1135;DHT22;556;53.550;10.048;2022-11-13T02:11:15;9.90;53.00
1135;DHT22;556;53.550;10.048;2022-11-13T02:14:02;9.90;53.00
1135;DHT22;556;53.550;10.048;2022-11-13T02:16:51;9.90;52.90
1135;DHT22;556;53.550;10.048;2022-11-13T02:19:41;10.00;52.20
1135;DHT22;556;53.550;10.048;2022-11-13T02:22:31;10.00;52.20
1135;DHT22;556;53.550;10.048;2022-11-13T02:25:21;10.00;52.20
1135;DHT22;556;53.550;10.048;2022-11-13T02:28:08;10.00;52.20
1135;DHT22;556;53.550;10.048;2022-11-13T02:30:54;10.00;52.20
1135;DHT22;556;53.550;10.048;2022-11-13T02:33:39;10.00;52.30
1135;DHT22;556;53.550;10.048;2022-11-13T02:36:26;10.00;52.70
1135;DHT22;556;53.550;10.048;2022-11-13T02:39:13;9.90;53.10
1135;DHT22;556;53.550;10.048;2022-11-13T02:42:01;9.90;53.10
1135;DHT22;556;53.550;10.048;2022-11-13T02:44:47;9.90;53.10
1135;DHT22;556;53.550;10.048;2022-11-13T02:47:32;9.90;53.20
1135;DHT22;556;53.550;10.048;2022-11-13T02:50:18;9.90;53.20
1135;DHT22;556;53.550;10.048;2022-11-13T02:53:04;9.90;53.20
1135;DHT22;556;53.550;10.048;2022-11-13T02:55:50;9.90;53.20
1135;DHT22;556;53.550;10.048;2022-11-13T02:58:37;9.90;53.20
1135;DHT22;556;53.550;10.048;2022-11-13T03:01:22;9.90;53.20
1135;DHT22;556;53.550;10.048;2022-11-13T03:04:08;9.90;53.30
1135;DHT22;556;53.550;10.048;2022-11-13T03:06:54;9.90;53.20
1135;DHT22;556;53.550;10.048;2022-11-13T03:09:40;9.90;53.20
1135;DHT22;556;53.550;10.048;2022-11-13T03:12:26;9.90;53.20
1135;DHT22;556;53.550;10.048;2022-11-13T03:15:13;9.90;53.30
1135;DHT22;556;53.550;10.048;2022-11-13T03:18:02;9.90;53.30
1135;DHT22;556;53.550;10.048;2022-11-13T03:20:48;9.80;53.20
1135;DHT22;556;53.550;10.048;2022-11-13T03:23:38;9.80;53.30
1135;DHT22;556;53.550;10.048;2022-11-13T03:26:24;9.80;53.30
1135;DHT22;556;53.550;10.048;2022-11-13T03:29:12;9.80;53.30
1135;DHT22;556;53.550;10.048;2022-11-13T03:32:00;9.80;53.70
1135;DHT22;556;53.550;10.048;2022-11-13T03:34:46;9.80;53.30
1135;DHT22;556;53.550;10.048;2022-11-13T03:37:31;9.80;53.30
1135;DHT22;556;53.550;10.048;2022-11-13T03:40:18;9.90;53.30
1135;DHT22;556;53.550;10.048;2022-11-13T03:43:04;9.90;53.30
1135;DHT22;556;53.550;10.048;2022-11-13T03:45:50;9.90;53.30
1135;DHT22;556;53.550;10.048;2022-11-13T03:48:37;9.90;53.30
1135;DHT22;556;53.550;10.048;2022-11-13T03:51:23;9.90;53.30
1135;DHT22;556;53.550;10.048;2022-11-13T03:54:09;9.90;53.30
1135;DHT22;556;53.550;10.048;2022-11-13T03:56:54;9.90;53.30
1135;DHT22;556;53.550;10.048;2022-11-13T03:59:40;9.90;53.30
1135;DHT22;556;53.550;10.048;2022-11-13T04:02:26;9.80;53.30
1135;DHT22;556;53.550;10.048;2022-11-13T04:05:12;9.80;53.30
1135;DHT22;556;53.550;10.048;2022-11-13T04:07:58;9.80;53.30
1135;DHT22;556;53.550;10.048;2022-11-13T04:10:44;9.80;53.40
1135;DHT22;556;53.550;10.048;2022-11-13T04:13:30;9.70;53.30
1135;DHT22;556;53.550;10.048;2022-11-13T04:16:15;9.70;53.40
1135;DHT22;556;53.550;10.048;2022-11-13T04:19:01;9.70;53.40
1135;DHT22;556;53.550;10.048;2022-11-13T04:21:49;9.60;53.30
1135;DHT22;556;53.550;10.048;2022-11-13T04:24:34;9.50;53.40
1135;DHT22;556;53.550;10.048;2022-11-13T04:27:20;9.50;53.40
1135;DHT22;556;53.550;10.048;2022-11-13T04:30:07;9.50;53.50
1135;DHT22;556;53.550;10.048;2022-11-13T04:32:53;9.50;53.50
1135;DHT22;556;53.550;10.048;2022-11-13T04:35:39;9.40;53.40
1135;DHT22;556;53.550;10.048;2022-11-13T04:38:33;9.50;53.50
1135;DHT22;556;53.550;10.048;2022-11-13T04:41:19;9.40;53.50
1135;DHT22;556;53.550;10.048;2022-11-13T04:44:23;9.40;53.50
1135;DHT22;556;53.550;10.048;2022-11-13T04:47:09;9.40;53.50
1135;DHT22;556;53.550;10.048;2022-11-13T04:49:55;9.40;53.50
1135;DHT22;556;53.550;10.048;2022-11-13T04:52:41;9.30;53.90
1135;DHT22;556;53.550;10.048;2022-11-13T04:55:28;9.40;53.50
1135;DHT22;556;53.550;10.048;2022-11-13T04:58:14;9.30;53.40
1135;DHT22;556;53.550;10.048;2022-11-13T05:01:00;9.30;53.50
1135;DHT22;556;53.550;10.048;2022-11-13T05:03:48;9.30;53.50
1135;DHT22;556;53.550;10.048;2022-11-13T05:06:34;9.30;53.40
1135;DHT22;556;53.550;10.048;2022-11-13T05:09:20;9.20;53.40
1135;DHT22;556;53.550;10.048;2022-11-13T05:12:07;9.20;53.50
1135;DHT22;556;53.550;10.048;2022-11-13T05:14:53;9.20;53.50
1135;DHT22;556;53.550;10.048;2022-11-13T05:17:40;9.20;53.50
1135;DHT22;556;53.550;10.048;2022-11-13T05:20:26;9.20;53.50
1135;DHT22;556;53.550;10.048;2022-11-13T05:23:12;9.20;53.50
1135;DHT22;556;53.550;10.048;2022-11-13T05:26:01;9.20;53.50
1135;DHT22;556;53.550;10.048;2022-11-13T05:28:49;9.20;53.50
1135;DHT22;556;53.550;10.048;2022-11-13T05:34:22;9.10;53.40
1135;DHT22;556;53.550;10.048;2022-11-13T05:37:08;9.10;53.50
1135;DHT22;556;53.550;10.048;2022-11-13T05:39:54;9.10;53.50
1135;DHT22;556;53.550;10.048;2022-11-13T05:42:40;9.10;53.50
1135;DHT22;556;53.550;10.048;2022-11-13T05:45:28;9.10;53.50
1135;DHT22;556;53.550;10.048;2022-11-13T05:48:13;9.10;53.60
1135;DHT22;556;53.550;10.048;2022-11-13T05:51:01;9.10;53.60
1135;DHT22;556;53.550;10.048;2022-11-13T05:53:47;9.10;53.60
1135;DHT22;556;53.550;10.048;2022-11-13T05:56:34;9.10;53.60
1135;DHT22;556;53.550;10.048;2022-11-13T05:59:20;9.10;53.50
1135;DHT22;556;53.550;10.048;2022-11-13T06:02:07;9.10;53.50
1135;DHT22;556;53.550;10.048;2022-11-13T06:04:53;9.10;53.50
1135;DHT22;556;53.550;10.048;2022-11-13T06:07:40;9.10;53.50
1135;DHT22;556;53.550;10.048;2022-11-13T06:10:26;9.10;53.60
1135;DHT22;556;53.550;10.048;2022-11-13T06:13:11;9.10;53.60
1135;DHT22;556;53.550;10.048;2022-11-13T06:15:59;9.00;53.50
1135;DHT22;556;53.550;10.048;2022-11-13T06:18:47;9.00;53.60
1135;DHT22;556;53.550;10.048;2022-11-13T06:21:36;9.00;53.60
1135;DHT22;556;53.550;10.048;2022-11-13T06:24:22;8.90;53.60
1135;DHT22;556;53.550;10.048;2022-11-13T06:27:08;8.90;53.60
1135;DHT22;556;53.550;10.048;2022-11-13T06:29:54;8.90;54.10
1135;DHT22;556;53.550;10.048;2022-11-13T06:32:39;8.90;53.70
1135;DHT22;556;53.550;10.048;2022-11-13T06:35:26;8.90;53.70
1135;DHT22;556;53.550;10.048;2022-11-13T06:38:13;8.90;53.60
1135;DHT22;556;53.550;10.048;2022-11-13T06:40:59;8.90;53.60
1135;DHT22;556;53.550;10.048;2022-11-13T06:43:46;9.00;53.60
1135;DHT22;556;53.550;10.048;2022-11-13T06:46:32;9.00;53.60
1135;DHT22;556;53.550;10.048;2022-11-13T06:49:17;9.00;53.60
1135;DHT22;556;53.550;10.048;2022-11-13T06:52:05;9.00;53.60
1135;DHT22;556;53.550;10.048;2022-11-13T06:54:51;9.00;53.60
1135;DHT22;556;53.550;10.048;2022-11-13T06:57:37;8.90;53.50
1135;DHT22;556;53.550;10.048;2022-11-13T07:00:23;8.90;53.60
1135;DHT22;556;53.550;10.048;2022-11-13T07:03:14;9.00;53.60
1135;DHT22;556;53.550;10.048;2022-11-13T07:06:01;9.00;53.60
1135;DHT22;556;53.550;10.048;2022-11-13T07:11:35;9.10;53.60
1135;DHT22;556;53.550;10.048;2022-11-13T07:14:21;9.20;53.60
1135;DHT22;556;53.550;10.048;2022-11-13T07:17:07;9.30;53.70
1135;DHT22;556;53.550;10.048;2022-11-13T07:19:52;9.30;53.60
1135;DHT22;556;53.550;10.048;2022-11-13T07:22:37;9.30;53.50
1135;DHT22;556;53.550;10.048;2022-11-13T07:25:25;9.40;54.00
1135;DHT22;556;53.550;10.048;2022-11-13T07:28:11;9.50;53.60
1135;DHT22;556;53.550;10.048;2022-11-13T07:30:57;9.60;53.60
1135;DHT22;556;53.550;10.048;2022-11-13T07:33:43;9.60;53.60
1135;DHT22;556;53.550;10.048;2022-11-13T07:36:29;9.70;53.60
1135;DHT22;556;53.550;10.048;2022-11-13T07:39:14;9.80;53.60
1135;DHT22;556;53.550;10.048;2022-11-13T07:42:01;9.90;53.60
1135;DHT22;556;53.550;10.048;2022-11-13T07:44:47;10.00;52.70
1135;DHT22;556;53.550;10.048;2022-11-13T07:47:33;10.00;52.70
1135;DHT22;556;53.550;10.048;2022-11-13T07:50:19;10.10;52.80
1135;DHT22;556;53.550;10.048;2022-11-13T07:53:06;10.20;53.30
1135;DHT22;556;53.550;10.048;2022-11-13T07:55:52;10.40;52.80
1135;DHT22;556;53.550;10.048;2022-11-13T07:58:39;10.50;52.80
1135;DHT22;556;53.550;10.048;2022-11-13T08:01:25;10.60;52.80
1135;DHT22;556;53.550;10.048;2022-11-13T08:04:11;10.70;52.80
1135;DHT22;556;53.550;10.048;2022-11-13T08:06:57;11.00;52.80
1135;DHT22;556;53.550;10.048;2022-11-13T08:09:42;11.10;52.80
1135;DHT22;556;53.550;10.048;2022-11-13T08:12:28;11.30;53.40
1135;DHT22;556;53.550;10.048;2022-11-13T08:15:15;11.60;52.90
1135;DHT22;556;53.550;10.048;2022-11-13T08:18:02;11.60;53.20
1135;DHT22;556;53.550;10.048;2022-11-13T08:20:47;11.90;52.90
1135;DHT22;556;53.550;10.048;2022-11-13T08:23:34;12.00;53.40
1135;DHT22;556;53.550;10.048;2022-11-13T08:26:20;12.20;53.10
1135;DHT22;556;53.550;10.048;2022-11-13T08:29:06;12.20;53.60
1135;DHT22;556;53.550;10.048;2022-11-13T08:31:54;12.50;53.20
1135;DHT22;556;53.550;10.048;2022-11-13T08:34:40;12.50;53.30
1135;DHT22;556;53.550;10.048;2022-11-13T08:37:26;12.50;53.40
1135;DHT22;556;53.550;10.048;2022-11-13T08:40:12;12.60;54.00
1135;DHT22;556;53.550;10.048;2022-11-13T08:42:58;12.70;54.00
1135;DHT22;556;53.550;10.048;2022-11-13T08:45:44;12.70;54.00
1135;DHT22;556;53.550;10.048;2022-11-13T08:48:32;12.80;53.90
1135;DHT22;556;53.550;10.048;2022-11-13T08:51:17;12.90;53.70
1135;DHT22;556;53.550;10.048;2022-11-13T08:54:04;13.00;53.70
1135;DHT22;556;53.550;10.048;2022-11-13T08:56:50;13.00;53.80
1135;DHT22;556;53.550;10.048;2022-11-13T08:59:36;13.10;53.70
1135;DHT22;556;53.550;10.048;2022-11-13T09:02:22;13.20;53.60
1135;DHT22;556;53.550;10.048;2022-11-13T09:05:10;13.20;53.60
1135;DHT22;556;53.550;10.048;2022-11-13T09:07:56;13.30;53.60
1135;DHT22;556;53.550;10.048;2022-11-13T09:10:42;13.40;53.60
1135;DHT22;556;53.550;10.048;2022-11-13T09:13:28;13.60;53.50
1135;DHT22;556;53.550;10.048;2022-11-13T09:16:14;13.70;53.50
1135;DHT22;556;53.550;10.048;2022-11-13T09:19:00;13.70;53.90
1135;DHT22;556;53.550;10.048;2022-11-13T09:21:47;13.60;53.60
1135;DHT22;556;53.550;10.048;2022-11-13T09:24:33;13.50;54.00
1135;DHT22;556;53.550;10.048;2022-11-13T09:27:19;13.50;53.70
1135;DHT22;556;53.550;10.048;2022-11-13T09:30:06;13.50;53.80
1135;DHT22;556;53.550;10.048;2022-11-13T09:32:52;13.50;54.10
1135;DHT22;556;53.550;10.048;2022-11-13T09:35:39;13.40;54.10
1135;DHT22;556;53.550;10.048;2022-11-13T09:38:26;13.40;53.70
1135;DHT22;556;53.550;10.048;2022-11-13T09:41:16;13.40;54.20
1135;DHT22;556;53.550;10.048;2022-11-13T09:44:05;13.50;53.70
1135;DHT22;556;53.550;10.048;2022-11-13T09:47:02;13.60;53.50
1135;DHT22;556;53.550;10.048;2022-11-13T09:49:53;13.70;53.50
1135;DHT22;556;53.550;10.048;2022-11-13T09:52:43;13.70;53.90
1135;DHT22;556;53.550;10.048;2022-11-13T09:55:46;13.70;53.40
1135;DHT22;556;53.550;10.048;2022-11-13T09:58:41;13.70;53.90
1135;DHT22;556;53.550;10.048;2022-11-13T10:01:35;13.90;53.40
1135;DHT22;556;53.550;10.048;2022-11-13T10:04:32;14.10;53.40
1135;DHT22;556;53.550;10.048;2022-11-13T10:07:27;14.10;53.30
1135;DHT22;556;53.550;10.048;2022-11-13T10:10:35;14.10;53.70
1135;DHT22;556;53.550;10.048;2022-11-13T10:13:26;14.20;53.20
1135;DHT22;556;53.550;10.048;2022-11-13T10:16:19;14.30;53.80
1135;DHT22;556;53.550;10.048;2022-11-13T10:19:15;14.20;53.30
1135;DHT22;556;53.550;10.048;2022-11-13T10:22:06;14.20;53.40
1135;DHT22;556;53.550;10.048;2022-11-13T10:25:00;14.20;53.40
1135;DHT22;556;53.550;10.048;2022-11-13T10:27:53;14.40;53.90
1135;DHT22;556;53.550;10.048;2022-11-13T10:30:40;14.40;53.30
1135;DHT22;556;53.550;10.048;2022-11-13T10:33:26;14.40;53.70
1135;DHT22;556;53.550;10.048;2022-11-13T10:36:18;14.40;53.70
1135;DHT22;556;53.550;10.048;2022-11-13T10:39:07;14.40;53.70
1135;DHT22;556;53.550;10.048;2022-11-13T10:41:54;14.40;53.10
1135;DHT22;556;53.550;10.048;2022-11-13T10:44:52;14.30;53.20
1135;DHT22;556;53.550;10.048;2022-11-13T10:47:44;14.30;53.20
1135;DHT22;556;53.550;10.048;2022-11-13T10:50:31;14.30;53.10
1135;DHT22;556;53.550;10.048;2022-11-13T10:53:18;14.40;53.10
1135;DHT22;556;53.550;10.048;2022-11-13T10:56:11;14.30;53.10
1135;DHT22;556;53.550;10.048;2022-11-13T10:59:02;14.40;53.10
1135;DHT22;556;53.550;10.048;2022-11-13T11:01:50;14.30;53.00
1135;DHT22;556;53.550;10.048;2022-11-13T11:04:36;14.20;53.20
1135;DHT22;556;53.550;10.048;2022-11-13T11:07:22;14.10;53.10
1135;DHT22;556;53.550;10.048;2022-11-13T11:10:20;14.00;53.20
1135;DHT22;556;53.550;10.048;2022-11-13T11:13:10;14.00;53.60
1135;DHT22;556;53.550;10.048;2022-11-13T11:15:58;13.90;53.20
1135;DHT22;556;53.550;10.048;2022-11-13T11:18:51;14.00;53.20
1135;DHT22;556;53.550;10.048;2022-11-13T11:21:40;14.20;53.10
1135;DHT22;556;53.550;10.048;2022-11-13T11:24:30;14.30;52.90
1135;DHT22;556;53.550;10.048;2022-11-13T11:27:21;14.30;53.40
1135;DHT22;556;53.550;10.048;2022-11-13T11:30:17;14.40;52.90
1135;DHT22;556;53.550;10.048;2022-11-13T11:33:08;14.40;52.90
1135;DHT22;556;53.550;10.048;2022-11-13T11:36:01;14.40;52.80
1135;DHT22;556;53.550;10.048;2022-11-13T11:38:54;14.40;53.30
1135;DHT22;556;53.550;10.048;2022-11-13T11:41:48;14.50;53.30
1135;DHT22;556;53.550;10.048;2022-11-13T11:44:44;14.50;53.30
1135;DHT22;556;53.550;10.048;2022-11-13T11:47:33;14.70;52.80
1135;DHT22;556;53.550;10.048;2022-11-13T11:50:29;14.80;52.80
1135;DHT22;556;53.550;10.048;2022-11-13T11:53:23;14.80;52.60
1135;DHT22;556;53.550;10.048;2022-11-13T11:56:22;14.90;52.70
1135;DHT22;556;53.550;10.048;2022-11-13T11:59:25;14.90;52.60
1135;DHT22;556;53.550;10.048;2022-11-13T12:02:43;14.90;52.60
1135;DHT22;556;53.550;10.048;2022-11-13T12:05:41;15.00;52.60
1135;DHT22;556;53.550;10.048;2022-11-13T12:08:37;15.00;52.60
1135;DHT22;556;53.550;10.048;2022-11-13T12:11:26;15.00;52.60
1135;DHT22;556;53.550;10.048;2022-11-13T12:14:18;15.00;52.60
1135;DHT22;556;53.550;10.048;2022-11-13T12:17:20;15.00;52.50
1135;DHT22;556;53.550;10.048;2022-11-13T12:20:20;14.90;52.40
1135;DHT22;556;53.550;10.048;2022-11-13T12:23:28;14.80;52.50
1135;DHT22;556;53.550;10.048;2022-11-13T12:26:23;14.80;52.60
1135;DHT22;556;53.550;10.048;2022-11-13T12:29:32;14.70;52.60
1135;DHT22;556;53.550;10.048;2022-11-13T12:32:31;14.70;52.60
1135;DHT22;556;53.550;10.048;2022-11-13T12:35:20;14.60;52.50
1135;DHT22;556;53.550;10.048;2022-11-13T12:38:16;14.60;52.50
1135;DHT22;556;53.550;10.048;2022-11-13T12:41:12;14.60;52.50
1135;DHT22;556;53.550;10.048;2022-11-13T12:44:13;14.60;52.40
1135;DHT22;556;53.550;10.048;2022-11-13T12:47:02;14.60;52.30
1135;DHT22;556;53.550;10.048;2022-11-13T12:49:58;14.70;52.40
1135;DHT22;556;53.550;10.048;2022-11-13T12:52:44;14.60;52.30
1135;DHT22;556;53.550;10.048;2022-11-13T12:55:31;14.70;52.40
1135;DHT22;556;53.550;10.048;2022-11-13T12:58:19;14.70;52.30
1135;DHT22;556;53.550;10.048;2022-11-13T13:01:15;14.70;52.70
1135;DHT22;556;53.550;10.048;2022-11-13T13:04:41;14.80;52.30
1135;DHT22;556;53.550;10.048;2022-11-13T13:07:45;14.80;52.20
1135;DHT22;556;53.550;10.048;2022-11-13T13:10:44;14.70;52.30
1135;DHT22;556;53.550;10.048;2022-11-13T13:13:39;14.70;52.40
1135;DHT22;556;53.550;10.048;2022-11-13T13:16:29;14.70;52.40
1135;DHT22;556;53.550;10.048;2022-11-13T13:19:26;14.70;52.80
1135;DHT22;556;53.550;10.048;2022-11-13T13:22:27;14.90;52.10
1135;DHT22;556;53.550;10.048;2022-11-13T13:25:25;14.90;52.10
1135;DHT22;556;53.550;10.048;2022-11-13T13:28:17;14.90;52.00
1135;DHT22;556;53.550;10.048;2022-11-13T13:31:13;14.90;52.30
1135;DHT22;556;53.550;10.048;2022-11-13T13:34:17;14.80;52.20
1135;DHT22;556;53.550;10.048;2022-11-13T13:37:12;14.70;52.20
1135;DHT22;556;53.550;10.048;2022-11-13T13:40:10;14.60;52.30
1135;DHT22;556;53.550;10.048;2022-11-13T13:43:20;14.60;52.80
1135;DHT22;556;53.550;10.048;2022-11-13T13:46:13;14.60;53.40
1135;DHT22;556;53.550;10.048;2022-11-13T13:49:02;14.50;52.40
1135;DHT22;556;53.550;10.048;2022-11-13T13:51:51;14.40;52.30
1135;DHT22;556;53.550;10.048;2022-11-13T13:54:39;14.50;52.40
1135;DHT22;556;53.550;10.048;2022-11-13T13:57:26;14.50;52.40
1135;DHT22;556;53.550;10.048;2022-11-13T14:00:13;14.50;52.30
1135;DHT22;556;53.550;10.048;2022-11-13T14:03:00;14.50;52.20
1135;DHT22;556;53.550;10.048;2022-11-13T14:05:46;14.50;52.10
1135;DHT22;556;53.550;10.048;2022-11-13T14:08:34;14.40;52.20
1135;DHT22;556;53.550;10.048;2022-11-13T14:11:21;14.30;52.20
1135;DHT22;556;53.550;10.048;2022-11-13T14:14:16;14.30;52.30
1135;DHT22;556;53.550;10.048;2022-11-13T14:17:02;14.20;52.30
1135;DHT22;556;53.550;10.048;2022-11-13T14:19:48;14.20;52.30
1135;DHT22;556;53.550;10.048;2022-11-13T14:22:35;14.20;52.70
1135;DHT22;556;53.550;10.048;2022-11-13T14:25:24;14.20;52.30
1135;DHT22;556;53.550;10.048;2022-11-13T14:28:13;14.20;52.70
1135;DHT22;556;53.550;10.048;2022-11-13T14:31:01;14.20;52.20
1135;DHT22;556;53.550;10.048;2022-11-13T14:33:49;14.20;52.20
1135;DHT22;556;53.550;10.048;2022-11-13T14:36:35;14.20;52.20
1135;DHT22;556;53.550;10.048;2022-11-13T14:39:26;14.10;52.30
1135;DHT22;556;53.550;10.048;2022-11-13T14:42:17;14.10;52.40
1135;DHT22;556;53.550;10.048;2022-11-13T14:45:15;14.10;52.30
1135;DHT22;556;53.550;10.048;2022-11-13T14:48:02;14.20;52.30
1135;DHT22;556;53.550;10.048;2022-11-13T14:50:50;14.20;52.20
1135;DHT22;556;53.550;10.048;2022-11-13T14:53:38;14.30;52.20
1135;DHT22;556;53.550;10.048;2022-11-13T14:56:32;14.20;52.20
1135;DHT22;556;53.550;10.048;2022-11-13T14:59:27;14.20;52.20
1135;DHT22;556;53.550;10.048;2022-11-13T15:02:13;14.20;52.30
1135;DHT22;556;53.550;10.048;2022-11-13T15:04:58;14.20;52.30
1135;DHT22;556;53.550;10.048;2022-11-13T15:07:44;14.10;52.30
1135;DHT22;556;53.550;10.048;2022-11-13T15:10:31;14.10;52.30
1135;DHT22;556;53.550;10.048;2022-11-13T15:13:17;14.20;52.30
1135;DHT22;556;53.550;10.048;2022-11-13T15:16:05;14.10;52.30
1135;DHT22;556;53.550;10.048;2022-11-13T15:18:53;14.00;52.40
1135;DHT22;556;53.550;10.048;2022-11-13T15:21:39;13.90;52.50
1135;DHT22;556;53.550;10.048;2022-11-13T15:24:25;13.90;52.50
1135;DHT22;556;53.550;10.048;2022-11-13T15:27:13;13.90;52.50
1135;DHT22;556;53.550;10.048;2022-11-13T15:29:59;13.90;52.40
1135;DHT22;556;53.550;10.048;2022-11-13T15:32:46;14.00;52.50
1135;DHT22;556;53.550;10.048;2022-11-13T15:35:37;13.90;52.40
1135;DHT22;556;53.550;10.048;2022-11-13T15:38:22;13.80;52.40
1135;DHT22;556;53.550;10.048;2022-11-13T15:41:10;13.80;52.40
1135;DHT22;556;53.550;10.048;2022-11-13T15:43:56;13.80;52.50
1135;DHT22;556;53.550;10.048;2022-11-13T15:46:42;13.80;52.40
1135;DHT22;556;53.550;10.048;2022-11-13T15:49:29;13.80;52.50
1135;DHT22;556;53.550;10.048;2022-11-13T15:52:15;13.90;52.50
1135;DHT22;556;53.550;10.048;2022-11-13T15:55:02;13.80;52.50
1135;DHT22;556;53.550;10.048;2022-11-13T15:57:48;13.90;52.50
1135;DHT22;556;53.550;10.048;2022-11-13T16:00:34;13.90;52.40
1135;DHT22;556;53.550;10.048;2022-11-13T16:03:25;13.90;52.40
1135;DHT22;556;53.550;10.048;2022-11-13T16:06:14;14.00;52.50
1135;DHT22;556;53.550;10.048;2022-11-13T16:09:01;14.00;52.50
1135;DHT22;556;53.550;10.048;2022-11-13T16:11:47;14.00;52.50
1135;DHT22;556;53.550;10.048;2022-11-13T16:14:32;14.00;52.50
1135;DHT22;556;53.550;10.048;2022-11-13T16:17:19;14.00;52.50
1135;DHT22;556;53.550;10.048;2022-11-13T16:20:07;14.00;52.50
1135;DHT22;556;53.550;10.048;2022-11-13T16:22:56;14.00;52.60
1135;DHT22;556;53.550;10.048;2022-11-13T16:25:41;14.00;52.60
1135;DHT22;556;53.550;10.048;2022-11-13T16:28:27;14.00;53.00
1135;DHT22;556;53.550;10.048;2022-11-13T16:31:13;14.10;52.70
1135;DHT22;556;53.550;10.048;2022-11-13T16:33:59;14.10;52.50
1135;DHT22;556;53.550;10.048;2022-11-13T16:36:45;14.20;52.60
1135;DHT22;556;53.550;10.048;2022-11-13T16:39:32;14.10;52.50
1135;DHT22;556;53.550;10.048;2022-11-13T16:45:04;14.10;52.70
1135;DHT22;556;53.550;10.048;2022-11-13T16:47:50;14.10;52.70
1135;DHT22;556;53.550;10.048;2022-11-13T16:50:36;14.10;52.80
1135;DHT22;556;53.550;10.048;2022-11-13T16:53:23;14.10;53.30
1135;DHT22;556;53.550;10.048;2022-11-13T16:56:13;14.10;52.80
1135;DHT22;556;53.550;10.048;2022-11-13T16:58:59;14.10;52.80
1135;DHT22;556;53.550;10.048;2022-11-13T17:01:45;14.10;52.80
1135;DHT22;556;53.550;10.048;2022-11-13T17:04:30;14.10;52.90
1135;DHT22;556;53.550;10.048;2022-11-13T17:07:16;14.10;52.90
1135;DHT22;556;53.550;10.048;2022-11-13T17:10:01;14.10;53.00
1135;DHT22;556;53.550;10.048;2022-11-13T17:12:50;14.10;53.00
1135;DHT22;556;53.550;10.048;2022-11-13T17:15:36;14.00;52.90
1135;DHT22;556;53.550;10.048;2022-11-13T17:18:21;14.10;53.10
1135;DHT22;556;53.550;10.048;2022-11-13T17:21:06;14.10;53.00
1135;DHT22;556;53.550;10.048;2022-11-13T17:23:53;14.10;53.00
1135;DHT22;556;53.550;10.048;2022-11-13T17:26:39;14.10;53.00
1135;DHT22;556;53.550;10.048;2022-11-13T17:29:26;14.10;53.00
1135;DHT22;556;53.550;10.048;2022-11-13T17:32:11;14.10;53.00
1135;DHT22;556;53.550;10.048;2022-11-13T17:34:57;14.10;53.20
1135;DHT22;556;53.550;10.048;2022-11-13T17:37:42;14.10;53.70
1135;DHT22;556;53.550;10.048;2022-11-13T17:40:28;14.20;53.10
1135;DHT22;556;53.550;10.048;2022-11-13T17:43:14;14.20;53.10
1135;DHT22;556;53.550;10.048;2022-11-13T17:46:00;14.20;53.00
1135;DHT22;556;53.550;10.048;2022-11-13T17:48:46;14.30;53.10
1135;DHT22;556;53.550;10.048;2022-11-13T17:51:32;14.30;53.10
1135;DHT22;556;53.550;10.048;2022-11-13T17:54:18;14.30;53.10
1135;DHT22;556;53.550;10.048;2022-11-13T17:57:03;14.30;53.10
1135;DHT22;556;53.550;10.048;2022-11-13T17:59:51;14.40;53.20
1135;DHT22;556;53.550;10.048;2022-11-13T18:02:41;14.40;53.10
1135;DHT22;556;53.550;10.048;2022-11-13T18:05:27;14.40;53.20
1135;DHT22;556;53.550;10.048;2022-11-13T18:08:13;14.30;53.30
1135;DHT22;556;53.550;10.048;2022-11-13T18:10:58;14.30;53.70
1135;DHT22;556;53.550;10.048;2022-11-13T18:13:51;14.30;53.30
1135;DHT22;556;53.550;10.048;2022-11-13T18:16:37;14.30;53.30
1135;DHT22;556;53.550;10.048;2022-11-13T18:19:24;14.30;53.30
1135;DHT22;556;53.550;10.048;2022-11-13T18:22:12;14.30;53.30
1135;DHT22;556;53.550;10.048;2022-11-13T18:24:58;14.30;53.30
1135;DHT22;556;53.550;10.048;2022-11-13T18:27:45;14.30;53.80
1135;DHT22;556;53.550;10.048;2022-11-13T18:30:30;14.20;53.30
1135;DHT22;556;53.550;10.048;2022-11-13T18:33:16;14.20;53.40
1135;DHT22;556;53.550;10.048;2022-11-13T18:36:04;14.30;53.90
1135;DHT22;556;53.550;10.048;2022-11-13T18:38:50;14.20;53.30